sensor_id;sensor_type;location;lat;lon;timestamp;P1;durP1;ratioP1;P2;durP2;ratioP2
56102;SDS011;41970;48.774;9.280;2022-08-18T00:01:22;9.10;;;8.30;;
56102;SDS011;41970;48.774;9.280;2022-08-18T00:03:49;9.00;;;8.20;;
56102;SDS011;41970;48.774;9.280;2022-08-18T00:06:16;9.90;;;9.10;;
56102;SDS011;41970;48.774;9.280;2022-08-18T00:08:43;10.47;;;9.00;;
56102;SDS011;41970;48.774;9.280;2022-08-18T00:11:09;8.87;;;7.93;;
56102;SDS011;41970;48.774;9.280;2022-08-18T00:13:35;9.07;;;8.27;;
56102;SDS011;41970;48.774;9.280;2022-08-18T00:16:01;8.30;;;7.60;;
56102;SDS011;41970;48.774;9.280;2022-08-18T00:18:27;8.00;;;7.30;;
56102;SDS011;41970;48.774;9.280;2022-08-18T00:20:53;8.20;;;7.07;;
56102;SDS011;41970;48.774;9.280;2022-08-18T00:23:19;8.73;;;8.03;;
56102;SDS011;41970;48.774;9.280;2022-08-18T00:25:45;8.23;;;7.53;;
56102;SDS011;41970;48.774;9.280;2022-08-18T00:28:14;9.10;;;8.40;;
56102;SDS011;41970;48.774;9.280;2022-08-18T00:30:40;7.90;;;7.30;;
56102;SDS011;41970;48.774;9.280;2022-08-18T00:33:06;7.97;;;7.27;;
56102;SDS011;41970;48.774;9.280;2022-08-18T00:35:33;8.50;;;7.30;;
56102;SDS011;41970;48.774;9.280;2022-08-18T00:38:04;8.17;;;7.50;;
56102;SDS011;41970;48.774;9.280;2022-08-18T00:40:42;8.73;;;7.20;;
56102;SDS011;41970;48.774;9.280;2022-08-18T00:46:15;8.47;;;7.43;;
56102;SDS011;41970;48.774;9.280;2022-08-18T00:48:46;8.43;;;7.73;;
56102;SDS011;41970;48.774;9.280;2022-08-18T00:51:18;9.20;;;8.30;;
56102;SDS011;41970;48.774;9.280;2022-08-18T00:53:59;7.47;;;6.83;;
56102;SDS011;41970;48.774;9.280;2022-08-18T00:56:33;7.97;;;7.33;;
56102;SDS011;41970;48.774;9.280;2022-08-18T00:59:13;7.77;;;7.10;;
56102;SDS011;41970;48.774;9.280;2022-08-18T01:02:00;7.30;;;6.70;;
56102;SDS011;41970;48.774;9.280;2022-08-18T01:07:24;6.93;;;6.33;;
56102;SDS011;41970;48.774;9.280;2022-08-18T01:09:54;8.43;;;7.60;;
56102;SDS011;41970;48.774;9.280;2022-08-18T01:12:24;7.93;;;7.23;;
56102;SDS011;41970;48.774;9.280;2022-08-18T01:14:53;7.07;;;6.47;;
56102;SDS011;41970;48.774;9.280;2022-08-18T01:17:21;7.60;;;6.63;;
56102;SDS011;41970;48.774;9.280;2022-08-18T01:20:06;6.67;;;6.17;;
56102;SDS011;41970;48.774;9.280;2022-08-18T01:23:03;7.23;;;6.70;;
56102;SDS011;41970;48.774;9.280;2022-08-18T01:25:35;7.73;;;7.13;;
56102;SDS011;41970;48.774;9.280;2022-08-18T01:28:21;7.40;;;6.70;;
56102;SDS011;41970;48.774;9.280;2022-08-18T01:30:49;7.70;;;6.87;;
56102;SDS011;41970;48.774;9.280;2022-08-18T01:33:20;6.27;;;5.77;;
56102;SDS011;41970;48.774;9.280;2022-08-18T01:35:46;7.23;;;6.63;;
56102;SDS011;41970;48.774;9.280;2022-08-18T01:38:14;6.67;;;6.17;;
56102;SDS011;41970;48.774;9.280;2022-08-18T01:40:43;6.70;;;6.20;;
56102;SDS011;41970;48.774;9.280;2022-08-18T01:43:10;8.77;;;7.97;;
56102;SDS011;41970;48.774;9.280;2022-08-18T01:45:37;7.27;;;6.60;;
56102;SDS011;41970;48.774;9.280;2022-08-18T01:48:03;7.97;;;7.27;;
56102;SDS011;41970;48.774;9.280;2022-08-18T01:50:29;8.33;;;7.53;;
56102;SDS011;41970;48.774;9.280;2022-08-18T01:52:58;7.53;;;6.60;;
56102;SDS011;41970;48.774;9.280;2022-08-18T01:55:25;7.20;;;6.00;;
56102;SDS011;41970;48.774;9.280;2022-08-18T01:57:53;7.30;;;6.60;;
56102;SDS011;41970;48.774;9.280;2022-08-18T02:00:19;7.80;;;7.20;;
56102;SDS011;41970;48.774;9.280;2022-08-18T02:02:46;6.97;;;6.40;;
56102;SDS011;41970;48.774;9.280;2022-08-18T02:05:14;6.60;;;6.10;;
56102;SDS011;41970;48.774;9.280;2022-08-18T02:07:43;7.17;;;6.57;;
56102;SDS011;41970;48.774;9.280;2022-08-18T02:10:10;7.07;;;6.43;;
56102;SDS011;41970;48.774;9.280;2022-08-18T02:12:37;7.43;;;6.80;;
56102;SDS011;41970;48.774;9.280;2022-08-18T02:15:04;7.00;;;6.40;;
56102;SDS011;41970;48.774;9.280;2022-08-18T02:17:38;6.97;;;6.47;;
56102;SDS011;41970;48.774;9.280;2022-08-18T02:20:11;8.00;;;7.20;;
56102;SDS011;41970;48.774;9.280;2022-08-18T02:22:38;7.97;;;7.20;;
56102;SDS011;41970;48.774;9.280;2022-08-18T02:25:04;6.60;;;6.00;;
56102;SDS011;41970;48.774;9.280;2022-08-18T02:27:31;7.60;;;7.10;;
56102;SDS011;41970;48.774;9.280;2022-08-18T02:30:01;7.70;;;7.00;;
56102;SDS011;41970;48.774;9.280;2022-08-18T02:32:32;7.33;;;6.70;;
56102;SDS011;41970;48.774;9.280;2022-08-18T02:34:59;6.93;;;6.43;;
56102;SDS011;41970;48.774;9.280;2022-08-18T02:37:25;6.70;;;6.10;;
56102;SDS011;41970;48.774;9.280;2022-08-18T02:39:51;6.90;;;6.30;;
56102;SDS011;41970;48.774;9.280;2022-08-18T02:42:16;7.33;;;6.83;;
56102;SDS011;41970;48.774;9.280;2022-08-18T02:44:42;7.10;;;6.50;;
56102;SDS011;41970;48.774;9.280;2022-08-18T02:47:09;7.93;;;7.23;;
56102;SDS011;41970;48.774;9.280;2022-08-18T02:49:35;7.13;;;6.43;;
56102;SDS011;41970;48.774;9.280;2022-08-18T02:52:01;7.60;;;7.00;;
56102;SDS011;41970;48.774;9.280;2022-08-18T02:54:27;6.93;;;6.43;;
56102;SDS011;41970;48.774;9.280;2022-08-18T02:56:53;6.80;;;6.30;;
56102;SDS011;41970;48.774;9.280;2022-08-18T02:59:22;7.83;;;7.23;;
56102;SDS011;41970;48.774;9.280;2022-08-18T03:01:50;7.30;;;6.70;;
56102;SDS011;41970;48.774;9.280;2022-08-18T03:04:20;7.60;;;6.80;;
56102;SDS011;41970;48.774;9.280;2022-08-18T03:06:49;7.60;;;6.90;;
56102;SDS011;41970;48.774;9.280;2022-08-18T03:09:16;8.60;;;7.80;;
56102;SDS011;41970;48.774;9.280;2022-08-18T03:11:43;8.23;;;7.50;;
56102;SDS011;41970;48.774;9.280;2022-08-18T03:14:10;8.30;;;7.60;;
56102;SDS011;41970;48.774;9.280;2022-08-18T03:16:37;8.37;;;7.67;;
56102;SDS011;41970;48.774;9.280;2022-08-18T03:19:04;8.07;;;7.47;;
56102;SDS011;41970;48.774;9.280;2022-08-18T03:21:31;8.80;;;8.10;;
56102;SDS011;41970;48.774;9.280;2022-08-18T03:24:00;7.23;;;6.63;;
56102;SDS011;41970;48.774;9.280;2022-08-18T03:26:27;9.07;;;8.30;;
56102;SDS011;41970;48.774;9.280;2022-08-18T03:28:54;9.40;;;8.50;;
56102;SDS011;41970;48.774;9.280;2022-08-18T03:31:21;8.97;;;8.20;;
56102;SDS011;41970;48.774;9.280;2022-08-18T03:33:49;9.00;;;8.30;;
56102;SDS011;41970;48.774;9.280;2022-08-18T03:36:18;8.77;;;7.97;;
56102;SDS011;41970;48.774;9.280;2022-08-18T03:38:46;9.67;;;8.77;;
56102;SDS011;41970;48.774;9.280;2022-08-18T03:41:14;9.17;;;7.60;;
56102;SDS011;41970;48.774;9.280;2022-08-18T03:43:42;8.20;;;7.43;;
56102;SDS011;41970;48.774;9.280;2022-08-18T03:46:09;10.10;;;7.97;;
56102;SDS011;41970;48.774;9.280;2022-08-18T03:48:37;8.50;;;7.80;;
56102;SDS011;41970;48.774;9.280;2022-08-18T03:51:24;8.60;;;7.70;;
56102;SDS011;41970;48.774;9.280;2022-08-18T03:53:53;9.40;;;8.70;;
56102;SDS011;41970;48.774;9.280;2022-08-18T03:56:21;8.87;;;8.13;;
56102;SDS011;41970;48.774;9.280;2022-08-18T03:59:31;7.90;;;7.30;;
56102;SDS011;41970;48.774;9.280;2022-08-18T04:01:42;7.70;;;7.10;;
56102;SDS011;41970;48.774;9.280;2022-08-18T04:04:11;7.73;;;7.13;;
56102;SDS011;41970;48.774;9.280;2022-08-18T04:06:40;8.90;;;8.10;;
56102;SDS011;41970;48.774;9.280;2022-08-18T04:09:14;7.47;;;6.70;;
56102;SDS011;41970;48.774;9.280;2022-08-18T04:11:45;7.33;;;6.73;;
56102;SDS011;41970;48.774;9.280;2022-08-18T04:14:12;7.97;;;7.20;;
56102;SDS011;41970;48.774;9.280;2022-08-18T04:16:40;8.37;;;7.67;;
56102;SDS011;41970;48.774;9.280;2022-08-18T04:19:06;8.40;;;7.70;;
56102;SDS011;41970;48.774;9.280;2022-08-18T04:21:34;8.70;;;7.90;;
56102;SDS011;41970;48.774;9.280;2022-08-18T04:24:02;8.03;;;7.33;;
56102;SDS011;41970;48.774;9.280;2022-08-18T04:26:33;8.90;;;8.10;;
56102;SDS011;41970;48.774;9.280;2022-08-18T04:29:05;7.33;;;6.73;;
56102;SDS011;41970;48.774;9.280;2022-08-18T04:31:32;8.03;;;7.37;;
56102;SDS011;41970;48.774;9.280;2022-08-18T04:33:58;8.00;;;7.27;;
56102;SDS011;41970;48.774;9.280;2022-08-18T04:36:25;8.40;;;7.70;;
56102;SDS011;41970;48.774;9.280;2022-08-18T04:38:53;8.37;;;7.57;;
56102;SDS011;41970;48.774;9.280;2022-08-18T04:41:19;8.60;;;7.80;;
56102;SDS011;41970;48.774;9.280;2022-08-18T04:43:51;9.13;;;8.37;;
56102;SDS011;41970;48.774;9.280;2022-08-18T04:46:21;8.30;;;7.60;;
56102;SDS011;41970;48.774;9.280;2022-08-18T04:48:48;7.50;;;6.80;;
56102;SDS011;41970;48.774;9.280;2022-08-18T04:51:18;7.90;;;7.30;;
56102;SDS011;41970;48.774;9.280;2022-08-18T04:53:45;7.97;;;7.33;;
56102;SDS011;41970;48.774;9.280;2022-08-18T04:56:16;7.83;;;7.23;;
56102;SDS011;41970;48.774;9.280;2022-08-18T04:59:12;8.53;;;7.70;;
56102;SDS011;41970;48.774;9.280;2022-08-18T05:01:41;8.33;;;7.53;;
56102;SDS011;41970;48.774;9.280;2022-08-18T05:04:12;8.60;;;7.80;;
56102;SDS011;41970;48.774;9.280;2022-08-18T05:06:40;8.20;;;7.57;;
56102;SDS011;41970;48.774;9.280;2022-08-18T05:09:09;8.67;;;7.77;;
56102;SDS011;41970;48.774;9.280;2022-08-18T05:11:36;8.10;;;7.43;;
56102;SDS011;41970;48.774;9.280;2022-08-18T05:14:04;10.53;;;8.13;;
56102;SDS011;41970;48.774;9.280;2022-08-18T05:16:33;8.80;;;7.40;;
56102;SDS011;41970;48.774;9.280;2022-08-18T05:19:01;9.40;;;8.50;;
56102;SDS011;41970;48.774;9.280;2022-08-18T05:21:28;8.97;;;8.27;;
56102;SDS011;41970;48.774;9.280;2022-08-18T05:23:54;9.23;;;8.40;;
56102;SDS011;41970;48.774;9.280;2022-08-18T05:26:21;7.37;;;6.77;;
56102;SDS011;41970;48.774;9.280;2022-08-18T05:28:46;9.17;;;8.47;;
56102;SDS011;41970;48.774;9.280;2022-08-18T05:31:14;9.27;;;8.40;;
56102;SDS011;41970;48.774;9.280;2022-08-18T05:33:42;30.33;;;9.77;;
56102;SDS011;41970;48.774;9.280;2022-08-18T05:39:02;10.07;;;9.03;;
56102;SDS011;41970;48.774;9.280;2022-08-18T05:41:35;8.90;;;8.10;;
56102;SDS011;41970;48.774;9.280;2022-08-18T05:44:05;9.83;;;7.60;;
56102;SDS011;41970;48.774;9.280;2022-08-18T05:46:37;8.83;;;8.13;;
56102;SDS011;41970;48.774;9.280;2022-08-18T05:49:38;8.33;;;7.53;;
56102;SDS011;41970;48.774;9.280;2022-08-18T05:52:11;9.00;;;8.10;;
56102;SDS011;41970;48.774;9.280;2022-08-18T05:54:46;8.90;;;8.20;;
56102;SDS011;41970;48.774;9.280;2022-08-18T05:57:37;8.40;;;7.70;;
56102;SDS011;41970;48.774;9.280;2022-08-18T06:00:11;10.60;;;9.63;;
56102;SDS011;41970;48.774;9.280;2022-08-18T06:02:39;10.43;;;9.40;;
56102;SDS011;41970;48.774;9.280;2022-08-18T06:05:30;8.53;;;7.77;;
56102;SDS011;41970;48.774;9.280;2022-08-18T06:08:06;10.80;;;9.17;;
56102;SDS011;41970;48.774;9.280;2022-08-18T06:10:37;11.00;;;10.00;;
56102;SDS011;41970;48.774;9.280;2022-08-18T06:13:07;10.20;;;9.30;;
56102;SDS011;41970;48.774;9.280;2022-08-18T06:18:38;9.47;;;8.63;;
56102;SDS011;41970;48.774;9.280;2022-08-18T06:24:14;9.53;;;8.60;;
56102;SDS011;41970;48.774;9.280;2022-08-18T06:32:19;10.20;;;9.20;;
56102;SDS011;41970;48.774;9.280;2022-08-18T06:34:55;10.73;;;9.70;;
56102;SDS011;41970;48.774;9.280;2022-08-18T06:37:38;13.67;;;9.97;;
56102;SDS011;41970;48.774;9.280;2022-08-18T06:40:34;10.57;;;9.70;;
56102;SDS011;41970;48.774;9.280;2022-08-18T06:43:01;11.20;;;10.23;;
56102;SDS011;41970;48.774;9.280;2022-08-18T06:45:30;10.30;;;9.30;;
56102;SDS011;41970;48.774;9.280;2022-08-18T06:50:56;11.57;;;8.97;;
56102;SDS011;41970;48.774;9.280;2022-08-18T06:59:16;8.33;;;7.63;;
56102;SDS011;41970;48.774;9.280;2022-08-18T07:01:45;8.30;;;7.60;;
56102;SDS011;41970;48.774;9.280;2022-08-18T07:05:01;9.17;;;8.37;;
56102;SDS011;41970;48.774;9.280;2022-08-18T07:09:58;9.10;;;8.23;;
56102;SDS011;41970;48.774;9.280;2022-08-18T07:12:26;9.23;;;8.50;;
56102;SDS011;41970;48.774;9.280;2022-08-18T07:14:55;9.40;;;8.40;;
56102;SDS011;41970;48.774;9.280;2022-08-18T07:17:30;8.57;;;7.80;;
56102;SDS011;41970;48.774;9.280;2022-08-18T07:22:27;10.20;;;9.20;;
56102;SDS011;41970;48.774;9.280;2022-08-18T07:24:54;9.90;;;8.90;;
56102;SDS011;41970;48.774;9.280;2022-08-18T07:30:06;9.93;;;9.13;;
56102;SDS011;41970;48.774;9.280;2022-08-18T07:35:36;9.70;;;8.80;;
56102;SDS011;41970;48.774;9.280;2022-08-18T07:40:42;13.20;;;9.10;;
56102;SDS011;41970;48.774;9.280;2022-08-18T07:43:23;9.20;;;8.37;;
56102;SDS011;41970;48.774;9.280;2022-08-18T07:49:23;9.20;;;8.43;;
56102;SDS011;41970;48.774;9.280;2022-08-18T07:54:49;8.57;;;7.87;;
56102;SDS011;41970;48.774;9.280;2022-08-18T07:57:45;9.20;;;8.40;;
56102;SDS011;41970;48.774;9.280;2022-08-18T08:00:23;8.60;;;7.80;;
56102;SDS011;41970;48.774;9.280;2022-08-18T08:08:33;9.17;;;8.37;;
56102;SDS011;41970;48.774;9.280;2022-08-18T08:14:08;9.53;;;8.67;;
56102;SDS011;41970;48.774;9.280;2022-08-18T08:22:23;8.90;;;8.10;;
56102;SDS011;41970;48.774;9.280;2022-08-18T08:28:05;9.97;;;8.97;;
56102;SDS011;41970;48.774;9.280;2022-08-18T08:33:26;9.43;;;8.63;;
56102;SDS011;41970;48.774;9.280;2022-08-18T08:36:01;9.97;;;9.13;;
56102;SDS011;41970;48.774;9.280;2022-08-18T08:41:10;9.43;;;8.57;;
56102;SDS011;41970;48.774;9.280;2022-08-18T08:44:00;9.07;;;8.20;;
56102;SDS011;41970;48.774;9.280;2022-08-18T08:46:28;11.70;;;9.50;;
56102;SDS011;41970;48.774;9.280;2022-08-18T08:49:22;11.00;;;9.97;;
56102;SDS011;41970;48.774;9.280;2022-08-18T08:51:59;10.20;;;9.20;;
56102;SDS011;41970;48.774;9.280;2022-08-18T08:54:30;9.50;;;8.60;;
56102;SDS011;41970;48.774;9.280;2022-08-18T08:57:06;10.53;;;9.53;;
56102;SDS011;41970;48.774;9.280;2022-08-18T08:59:34;10.63;;;9.73;;
56102;SDS011;41970;48.774;9.280;2022-08-18T09:04:31;9.57;;;8.77;;
56102;SDS011;41970;48.774;9.280;2022-08-18T09:23:33;9.43;;;7.47;;
56102;SDS011;41970;48.774;9.280;2022-08-18T09:26:23;10.23;;;9.33;;
56102;SDS011;41970;48.774;9.280;2022-08-18T09:29:11;7.90;;;7.30;;
56102;SDS011;41970;48.774;9.280;2022-08-18T09:31:40;7.70;;;7.10;;
56102;SDS011;41970;48.774;9.280;2022-08-18T09:34:18;8.67;;;7.93;;
56102;SDS011;41970;48.774;9.280;2022-08-18T09:37:09;9.17;;;8.30;;
56102;SDS011;41970;48.774;9.280;2022-08-18T09:39:43;9.33;;;8.50;;
56102;SDS011;41970;48.774;9.280;2022-08-18T09:42:39;9.97;;;9.10;;
56102;SDS011;41970;48.774;9.280;2022-08-18T09:50:53;9.37;;;8.60;;
56102;SDS011;41970;48.774;9.280;2022-08-18T09:56:01;8.80;;;8.10;;
56102;SDS011;41970;48.774;9.280;2022-08-18T09:58:48;9.87;;;9.10;;
56102;SDS011;41970;48.774;9.280;2022-08-18T10:06:42;10.10;;;8.07;;
56102;SDS011;41970;48.774;9.280;2022-08-18T10:11:58;7.33;;;6.73;;
56102;SDS011;41970;48.774;9.280;2022-08-18T10:21:07;9.63;;;8.73;;
56102;SDS011;41970;48.774;9.280;2022-08-18T10:31:23;8.43;;;7.63;;
56102;SDS011;41970;48.774;9.280;2022-08-18T10:34:08;9.77;;;8.97;;
56102;SDS011;41970;48.774;9.280;2022-08-18T10:39:14;10.10;;;9.23;;
56102;SDS011;41970;48.774;9.280;2022-08-18T10:41:50;8.53;;;7.83;;
56102;SDS011;41970;48.774;9.280;2022-08-18T10:44:24;11.13;;;9.60;;
56102;SDS011;41970;48.774;9.280;2022-08-18T10:46:52;8.93;;;8.23;;
56102;SDS011;41970;48.774;9.280;2022-08-18T10:49:22;9.70;;;8.90;;
56102;SDS011;41970;48.774;9.280;2022-08-18T11:00:04;7.33;;;6.60;;
56102;SDS011;41970;48.774;9.280;2022-08-18T11:02:43;9.23;;;8.43;;
56102;SDS011;41970;48.774;9.280;2022-08-18T11:05:19;9.37;;;8.47;;
56102;SDS011;41970;48.774;9.280;2022-08-18T11:07:48;9.97;;;9.07;;
56102;SDS011;41970;48.774;9.280;2022-08-18T11:10:33;10.10;;;9.30;;
56102;SDS011;41970;48.774;9.280;2022-08-18T11:15:53;9.37;;;8.47;;
56102;SDS011;41970;48.774;9.280;2022-08-18T11:20:52;8.83;;;8.13;;
56102;SDS011;41970;48.774;9.280;2022-08-18T11:23:37;9.20;;;8.50;;
56102;SDS011;41970;48.774;9.280;2022-08-18T11:26:13;11.93;;;10.83;;
56102;SDS011;41970;48.774;9.280;2022-08-18T11:28:39;10.47;;;9.57;;
56102;SDS011;41970;48.774;9.280;2022-08-18T11:31:05;11.27;;;10.20;;
56102;SDS011;41970;48.774;9.280;2022-08-18T11:33:31;10.87;;;9.97;;
56102;SDS011;41970;48.774;9.280;2022-08-18T11:35:58;11.27;;;10.07;;
56102;SDS011;41970;48.774;9.280;2022-08-18T11:38:26;10.10;;;9.30;;
56102;SDS011;41970;48.774;9.280;2022-08-18T11:41:09;11.13;;;10.17;;
56102;SDS011;41970;48.774;9.280;2022-08-18T11:43:56;11.30;;;10.20;;
56102;SDS011;41970;48.774;9.280;2022-08-18T11:46:29;11.10;;;10.20;;
56102;SDS011;41970;48.774;9.280;2022-08-18T11:49:11;9.80;;;9.10;;
56102;SDS011;41970;48.774;9.280;2022-08-18T11:54:49;9.83;;;9.07;;
56102;SDS011;41970;48.774;9.280;2022-08-18T12:05:54;9.60;;;8.80;;
56102;SDS011;41970;48.774;9.280;2022-08-18T12:08:35;9.50;;;8.70;;
56102;SDS011;41970;48.774;9.280;2022-08-18T12:11:16;10.00;;;9.20;;
56102;SDS011;41970;48.774;9.280;2022-08-18T12:13:45;9.70;;;8.90;;
56102;SDS011;41970;48.774;9.280;2022-08-18T12:16:29;9.87;;;8.97;;
56102;SDS011;41970;48.774;9.280;2022-08-18T12:18:59;10.00;;;9.10;;
56102;SDS011;41970;48.774;9.280;2022-08-18T12:21:26;10.13;;;9.27;;
56102;SDS011;41970;48.774;9.280;2022-08-18T12:23:52;8.70;;;8.00;;
56102;SDS011;41970;48.774;9.280;2022-08-18T12:26:18;9.37;;;8.60;;
56102;SDS011;41970;48.774;9.280;2022-08-18T12:28:44;8.57;;;7.97;;
56102;SDS011;41970;48.774;9.280;2022-08-18T12:31:10;9.37;;;8.67;;
56102;SDS011;41970;48.774;9.280;2022-08-18T12:33:36;9.83;;;9.03;;
56102;SDS011;41970;48.774;9.280;2022-08-18T12:36:03;9.70;;;9.00;;
56102;SDS011;41970;48.774;9.280;2022-08-18T12:38:32;9.23;;;8.53;;
56102;SDS011;41970;48.774;9.280;2022-08-18T12:40:58;11.93;;;9.23;;
56102;SDS011;41970;48.774;9.280;2022-08-18T12:43:24;8.60;;;8.00;;
56102;SDS011;41970;48.774;9.280;2022-08-18T12:45:51;9.83;;;8.93;;
56102;SDS011;41970;48.774;9.280;2022-08-18T12:48:17;8.73;;;8.00;;
56102;SDS011;41970;48.774;9.280;2022-08-18T12:50:43;9.50;;;8.70;;
56102;SDS011;41970;48.774;9.280;2022-08-18T12:53:10;9.00;;;8.30;;
56102;SDS011;41970;48.774;9.280;2022-08-18T12:55:39;8.93;;;8.23;;
56102;SDS011;41970;48.774;9.280;2022-08-18T12:58:07;8.70;;;7.90;;
56102;SDS011;41970;48.774;9.280;2022-08-18T13:00:33;9.27;;;8.57;;
56102;SDS011;41970;48.774;9.280;2022-08-18T13:03:00;8.53;;;7.73;;
56102;SDS011;41970;48.774;9.280;2022-08-18T13:05:26;13.07;;;8.13;;
56102;SDS011;41970;48.774;9.280;2022-08-18T13:07:55;8.57;;;7.97;;
56102;SDS011;41970;48.774;9.280;2022-08-18T13:10:22;10.23;;;9.13;;
56102;SDS011;41970;48.774;9.280;2022-08-18T13:12:50;8.77;;;7.97;;
56102;SDS011;41970;48.774;9.280;2022-08-18T13:15:16;8.80;;;8.03;;
56102;SDS011;41970;48.774;9.280;2022-08-18T13:17:42;11.80;;;8.80;;
56102;SDS011;41970;48.774;9.280;2022-08-18T13:20:12;10.77;;;7.67;;
56102;SDS011;41970;48.774;9.280;2022-08-18T13:22:40;10.07;;;9.07;;
56102;SDS011;41970;48.774;9.280;2022-08-18T13:25:07;9.90;;;8.83;;
56102;SDS011;41970;48.774;9.280;2022-08-18T13:27:36;9.17;;;8.20;;
56102;SDS011;41970;48.774;9.280;2022-08-18T13:30:04;8.80;;;7.90;;
56102;SDS011;41970;48.774;9.280;2022-08-18T13:32:33;8.23;;;7.53;;
56102;SDS011;41970;48.774;9.280;2022-08-18T13:34:59;8.50;;;7.90;;
56102;SDS011;41970;48.774;9.280;2022-08-18T13:37:25;8.40;;;7.80;;
56102;SDS011;41970;48.774;9.280;2022-08-18T13:39:56;7.93;;;7.37;;
56102;SDS011;41970;48.774;9.280;2022-08-18T13:42:23;8.17;;;7.47;;
56102;SDS011;41970;48.774;9.280;2022-08-18T13:44:50;8.57;;;7.77;;
56102;SDS011;41970;48.774;9.280;2022-08-18T13:47:16;7.80;;;7.20;;
56102;SDS011;41970;48.774;9.280;2022-08-18T13:49:42;8.40;;;7.60;;
56102;SDS011;41970;48.774;9.280;2022-08-18T13:52:09;9.27;;;8.40;;
56102;SDS011;41970;48.774;9.280;2022-08-18T13:54:37;8.30;;;7.60;;
56102;SDS011;41970;48.774;9.280;2022-08-18T13:57:05;8.23;;;7.53;;
56102;SDS011;41970;48.774;9.280;2022-08-18T13:59:31;8.27;;;7.50;;
56102;SDS011;41970;48.774;9.280;2022-08-18T14:01:59;7.97;;;7.27;;
56102;SDS011;41970;48.774;9.280;2022-08-18T14:04:30;7.07;;;6.47;;
56102;SDS011;41970;48.774;9.280;2022-08-18T14:06:56;7.33;;;6.37;;
56102;SDS011;41970;48.774;9.280;2022-08-18T14:09:21;7.57;;;6.87;;
56102;SDS011;41970;48.774;9.280;2022-08-18T14:11:48;7.37;;;6.80;;
56102;SDS011;41970;48.774;9.280;2022-08-18T14:14:14;7.10;;;6.60;;
56102;SDS011;41970;48.774;9.280;2022-08-18T14:16:39;7.60;;;7.10;;
56102;SDS011;41970;48.774;9.280;2022-08-18T14:19:05;8.50;;;6.80;;
56102;SDS011;41970;48.774;9.280;2022-08-18T14:21:51;6.30;;;5.90;;
56102;SDS011;41970;48.774;9.280;2022-08-18T14:24:37;7.00;;;6.50;;
56102;SDS011;41970;48.774;9.280;2022-08-18T14:27:24;7.93;;;6.50;;
56102;SDS011;41970;48.774;9.280;2022-08-18T14:29:56;7.80;;;7.20;;
56102;SDS011;41970;48.774;9.280;2022-08-18T14:32:23;7.10;;;6.50;;
56102;SDS011;41970;48.774;9.280;2022-08-18T14:34:51;7.03;;;6.33;;
56102;SDS011;41970;48.774;9.280;2022-08-18T14:37:18;7.53;;;6.83;;
56102;SDS011;41970;48.774;9.280;2022-08-18T14:39:45;7.80;;;7.20;;
56102;SDS011;41970;48.774;9.280;2022-08-18T14:42:11;7.17;;;6.57;;
56102;SDS011;41970;48.774;9.280;2022-08-18T14:44:39;6.73;;;6.30;;
56102;SDS011;41970;48.774;9.280;2022-08-18T14:47:05;8.17;;;7.47;;
56102;SDS011;41970;48.774;9.280;2022-08-18T14:49:31;7.60;;;7.10;;
56102;SDS011;41970;48.774;9.280;2022-08-18T14:51:58;7.30;;;6.70;;
56102;SDS011;41970;48.774;9.280;2022-08-18T14:54:25;7.60;;;6.90;;
56102;SDS011;41970;48.774;9.280;2022-08-18T14:56:52;7.13;;;6.60;;
56102;SDS011;41970;48.774;9.280;2022-08-18T14:59:17;7.53;;;6.53;;
56102;SDS011;41970;48.774;9.280;2022-08-18T15:01:44;7.53;;;6.90;;
56102;SDS011;41970;48.774;9.280;2022-08-18T15:04:10;6.73;;;6.17;;
56102;SDS011;41970;48.774;9.280;2022-08-18T15:06:36;7.17;;;6.60;;
56102;SDS011;41970;48.774;9.280;2022-08-18T15:09:04;6.73;;;6.33;;
56102;SDS011;41970;48.774;9.280;2022-08-18T15:11:30;7.10;;;6.60;;
56102;SDS011;41970;48.774;9.280;2022-08-18T15:13:57;6.80;;;6.30;;
56102;SDS011;41970;48.774;9.280;2022-08-18T15:16:24;8.00;;;6.60;;
56102;SDS011;41970;48.774;9.280;2022-08-18T15:18:51;8.07;;;7.10;;
56102;SDS011;41970;48.774;9.280;2022-08-18T15:21:17;9.43;;;7.53;;
56102;SDS011;41970;48.774;9.280;2022-08-18T15:24:02;7.03;;;6.50;;
56102;SDS011;41970;48.774;9.280;2022-08-18T15:26:47;7.87;;;7.17;;
56102;SDS011;41970;48.774;9.280;2022-08-18T15:29:16;6.57;;;6.00;;
56102;SDS011;41970;48.774;9.280;2022-08-18T15:31:42;7.70;;;7.10;;
56102;SDS011;41970;48.774;9.280;2022-08-18T15:34:09;7.73;;;7.13;;
56102;SDS011;41970;48.774;9.280;2022-08-18T15:36:35;7.80;;;7.20;;
56102;SDS011;41970;48.774;9.280;2022-08-18T15:39:03;7.90;;;7.30;;
56102;SDS011;41970;48.774;9.280;2022-08-18T15:41:32;7.77;;;7.17;;
56102;SDS011;41970;48.774;9.280;2022-08-18T15:44:06;7.50;;;7.00;;
56102;SDS011;41970;48.774;9.280;2022-08-18T15:46:35;8.53;;;7.77;;
56102;SDS011;41970;48.774;9.280;2022-08-18T15:49:03;7.50;;;6.80;;
56102;SDS011;41970;48.774;9.280;2022-08-18T15:51:34;7.37;;;6.77;;
56102;SDS011;41970;48.774;9.280;2022-08-18T15:54:02;8.53;;;7.73;;
56102;SDS011;41970;48.774;9.280;2022-08-18T15:56:29;7.50;;;6.80;;
56102;SDS011;41970;48.774;9.280;2022-08-18T15:58:55;7.83;;;7.13;;
56102;SDS011;41970;48.774;9.280;2022-08-18T16:01:23;7.70;;;7.10;;
56102;SDS011;41970;48.774;9.280;2022-08-18T16:03:50;7.30;;;6.70;;
56102;SDS011;41970;48.774;9.280;2022-08-18T16:06:20;7.50;;;6.90;;
56102;SDS011;41970;48.774;9.280;2022-08-18T16:08:48;7.07;;;6.57;;
56102;SDS011;41970;48.774;9.280;2022-08-18T16:11:16;7.83;;;7.23;;
56102;SDS011;41970;48.774;9.280;2022-08-18T16:13:43;7.20;;;6.67;;
56102;SDS011;41970;48.774;9.280;2022-08-18T16:16:13;7.90;;;7.40;;
56102;SDS011;41970;48.774;9.280;2022-08-18T16:18:41;7.33;;;6.73;;
56102;SDS011;41970;48.774;9.280;2022-08-18T16:21:10;7.10;;;6.50;;
56102;SDS011;41970;48.774;9.280;2022-08-18T16:23:38;6.77;;;6.33;;
56102;SDS011;41970;48.774;9.280;2022-08-18T16:26:08;7.40;;;6.90;;
56102;SDS011;41970;48.774;9.280;2022-08-18T16:28:43;7.10;;;6.60;;
56102;SDS011;41970;48.774;9.280;2022-08-18T16:31:11;7.97;;;7.37;;
56102;SDS011;41970;48.774;9.280;2022-08-18T16:33:40;7.37;;;6.87;;
56102;SDS011;41970;48.774;9.280;2022-08-18T16:36:07;7.23;;;6.70;;
56102;SDS011;41970;48.774;9.280;2022-08-18T16:38:35;6.90;;;6.40;;
56102;SDS011;41970;48.774;9.280;2022-08-18T16:41:04;7.37;;;6.77;;
56102;SDS011;41970;48.774;9.280;2022-08-18T16:43:31;7.67;;;7.10;;
56102;SDS011;41970;48.774;9.280;2022-08-18T16:45:58;8.07;;;7.43;;
56102;SDS011;41970;48.774;9.280;2022-08-18T16:48:27;6.47;;;5.83;;
56102;SDS011;41970;48.774;9.280;2022-08-18T16:50:54;6.50;;;6.07;;
56102;SDS011;41970;48.774;9.280;2022-08-18T16:53:20;6.57;;;6.03;;
56102;SDS011;41970;48.774;9.280;2022-08-18T16:55:47;7.60;;;6.27;;
56102;SDS011;41970;48.774;9.280;2022-08-18T16:58:13;8.20;;;6.53;;
56102;SDS011;41970;48.774;9.280;2022-08-18T17:00:58;10.73;;;6.70;;
56102;SDS011;41970;48.774;9.280;2022-08-18T17:03:42;7.80;;;7.30;;
56102;SDS011;41970;48.774;9.280;2022-08-18T17:06:38;7.03;;;6.43;;
56102;SDS011;41970;48.774;9.280;2022-08-18T17:09:04;8.43;;;7.83;;
56102;SDS011;41970;48.774;9.280;2022-08-18T17:11:31;7.47;;;6.87;;
56102;SDS011;41970;48.774;9.280;2022-08-18T17:13:57;7.40;;;6.80;;
56102;SDS011;41970;48.774;9.280;2022-08-18T17:16:26;8.23;;;7.67;;
56102;SDS011;41970;48.774;9.280;2022-08-18T17:18:53;7.30;;;6.73;;
56102;SDS011;41970;48.774;9.280;2022-08-18T17:21:20;7.87;;;7.07;;
56102;SDS011;41970;48.774;9.280;2022-08-18T17:23:52;8.53;;;7.93;;
56102;SDS011;41970;48.774;9.280;2022-08-18T17:31:57;8.57;;;7.90;;
56102;SDS011;41970;48.774;9.280;2022-08-18T17:34:35;8.90;;;8.30;;
56102;SDS011;41970;48.774;9.280;2022-08-18T17:37:06;7.90;;;6.70;;
56102;SDS011;41970;48.774;9.280;2022-08-18T17:39:38;7.73;;;7.10;;
56102;SDS011;41970;48.774;9.280;2022-08-18T17:42:10;8.13;;;7.40;;